createdAt,value
2024-04-23T00:00:44.347Z,997.57
2024-04-23T00:01:44.373Z,997.50
2024-04-23T00:02:44.407Z,997.59
2024-04-23T00:03:44.322Z,997.53
2024-04-23T00:04:44.337Z,997.56
2024-04-23T00:05:44.278Z,997.61
2024-04-23T00:06:44.267Z,997.58
2024-04-23T00:07:44.307Z,997.54
2024-04-23T00:08:44.261Z,997.51
2024-04-23T00:09:44.261Z,997.53
2024-04-23T00:10:44.270Z,997.51
2024-04-23T00:11:44.254Z,997.62
2024-04-23T00:12:44.244Z,997.57
2024-04-23T00:13:44.227Z,997.63
2024-04-23T00:14:44.198Z,997.60
2024-04-23T00:15:44.181Z,997.57
2024-04-23T00:16:44.196Z,997.51
2024-04-23T00:17:44.294Z,997.38
2024-04-23T00:18:44.201Z,997.45
2024-04-23T00:19:44.198Z,997.41
2024-04-23T00:20:44.143Z,997.45
2024-04-23T00:21:44.130Z,997.36
2024-04-23T00:22:44.185Z,997.36
2024-04-23T00:23:44.111Z,997.34
2024-04-23T00:24:44.082Z,997.37
2024-04-23T00:25:44.097Z,997.38
2024-04-23T00:26:44.075Z,997.34
2024-04-23T00:27:44.051Z,997.38
2024-04-23T00:28:44.084Z,997.39
2024-04-23T00:29:44.030Z,997.40
2024-04-23T00:30:44.048Z,997.36
2024-04-23T00:31:44.063Z,997.35
2024-04-23T00:32:44.052Z,997.36
2024-04-23T00:33:43.999Z,997.37
2024-04-23T00:34:44.032Z,997.39
2024-04-23T00:35:43.980Z,997.43
2024-04-23T00:36:43.970Z,997.30
2024-04-23T00:37:43.973Z,997.32
2024-04-23T00:38:43.998Z,997.41
2024-04-23T00:39:43.939Z,997.31
2024-04-23T00:40:44.046Z,997.34
2024-04-23T00:41:43.911Z,997.29
2024-04-23T00:42:43.911Z,997.34
2024-04-23T00:43:43.954Z,997.23
2024-04-23T00:44:43.899Z,997.26
2024-04-23T00:45:43.908Z,997.26
2024-04-23T00:46:43.917Z,997.25
2024-04-23T00:47:43.950Z,997.25
2024-04-23T00:48:43.853Z,997.29
2024-04-23T00:49:43.939Z,997.29
2024-04-23T00:50:43.816Z,997.20
2024-04-23T00:51:43.804Z,997.25
2024-04-23T00:52:43.803Z,997.26
2024-04-23T00:53:43.832Z,997.23
2024-04-23T00:54:43.793Z,997.19
2024-04-23T00:55:43.823Z,997.23
2024-04-23T00:56:43.760Z,997.15
2024-04-23T00:57:43.750Z,997.20
2024-04-23T00:58:44.000Z,997.17
2024-04-23T00:59:43.747Z,997.23
2024-04-23T01:00:43.735Z,997.30
2024-04-23T01:01:43.755Z,997.14
2024-04-23T01:02:43.756Z,997.15
2024-04-23T01:03:43.743Z,997.12
2024-04-23T01:04:43.693Z,997.17
2024-04-23T01:05:43.677Z,997.24
2024-04-23T01:06:43.650Z,997.15
2024-04-23T01:07:43.677Z,997.30
2024-04-23T01:08:43.653Z,997.04
2024-04-23T01:09:43.641Z,997.18
2024-04-23T01:10:43.662Z,997.10
2024-04-23T01:11:43.631Z,997.26
2024-04-23T01:12:43.594Z,997.12
2024-04-23T01:13:43.634Z,997.22
2024-04-23T01:14:43.581Z,997.16
2024-04-23T01:15:43.579Z,997.17
2024-04-23T01:16:43.582Z,997.18
2024-04-23T01:17:43.616Z,997.13
2024-04-23T01:18:43.547Z,997.18
2024-04-23T01:19:43.562Z,997.18
2024-04-23T01:20:43.515Z,997.17
2024-04-23T01:21:43.508Z,997.14
2024-04-23T01:22:43.537Z,997.13
2024-04-23T01:23:43.500Z,997.21
2024-04-23T01:24:43.472Z,997.24
2024-04-23T01:25:43.526Z,997.14
2024-04-23T01:26:43.457Z,997.14
2024-04-23T01:27:43.452Z,997.20
2024-04-23T01:28:43.489Z,997.12
2024-04-23T01:29:43.433Z,997.11
2024-04-23T01:30:43.408Z,997.11
2024-04-23T01:31:43.490Z,997.08
2024-04-23T01:32:43.470Z,997.04
2024-04-23T01:33:43.489Z,997.06
2024-04-23T01:34:43.417Z,997.05
2024-04-23T01:35:43.372Z,997.12
2024-04-23T01:36:43.367Z,997.04
2024-04-23T01:37:43.367Z,997.02
2024-04-23T01:38:43.344Z,997.03
2024-04-23T01:39:43.337Z,996.99
2024-04-23T01:40:43.345Z,997.12
2024-04-23T01:41:43.318Z,996.99
2024-04-23T01:42:43.301Z,997.04
2024-04-23T01:43:43.312Z,997.11
2024-04-23T01:44:43.285Z,997.02
2024-04-23T01:45:43.266Z,997.05
2024-04-23T01:46:43.301Z,997.06
2024-04-23T01:47:43.314Z,997.00
2024-04-23T01:48:43.241Z,996.97
2024-04-23T01:49:43.241Z,996.96
2024-04-23T01:50:43.237Z,997.02
2024-04-23T01:51:43.229Z,997.01
2024-04-23T01:52:43.236Z,997.01
2024-04-23T01:53:43.184Z,996.98
2024-04-23T01:54:43.174Z,997.10
2024-04-23T01:55:43.230Z,997.09
2024-04-23T01:56:43.161Z,997.10
2024-04-23T01:57:43.144Z,997.04
2024-04-23T01:58:43.201Z,997.05
2024-04-23T01:59:43.121Z,997.10
2024-04-23T02:00:43.131Z,997.03
2024-04-23T02:01:43.190Z,997.11
2024-04-23T02:02:43.129Z,997.02
2024-04-23T02:03:43.151Z,997.01
2024-04-23T02:04:43.098Z,997.02
2024-04-23T02:05:43.074Z,997.00
2024-04-23T02:06:43.057Z,997.05
2024-04-23T02:07:43.085Z,997.06
2024-04-23T02:08:43.026Z,996.95
2024-04-23T02:09:43.037Z,996.97
2024-04-23T02:10:43.077Z,996.99
2024-04-23T02:11:43.079Z,997.02
2024-04-23T02:12:42.995Z,997.03
2024-04-23T02:13:43.027Z,996.99
2024-04-23T02:14:42.985Z,996.98
2024-04-23T02:15:42.978Z,996.98
2024-04-23T02:16:42.950Z,996.98
2024-04-23T02:17:43.058Z,997.05
2024-04-23T02:18:42.974Z,996.97
2024-04-23T02:19:42.976Z,996.91
2024-04-23T02:20:42.922Z,996.99
2024-04-23T02:21:42.902Z,996.95
2024-04-23T02:22:42.946Z,997.00
2024-04-23T02:23:42.890Z,996.90
2024-04-23T02:24:42.888Z,996.98
2024-04-23T02:25:42.875Z,997.08
2024-04-23T02:26:42.864Z,997.00
2024-04-23T02:27:42.856Z,996.99
2024-04-23T02:28:42.866Z,996.97
2024-04-23T02:29:42.853Z,996.98
2024-04-23T02:30:42.820Z,996.92
2024-04-23T02:31:42.847Z,996.91
2024-04-23T02:32:42.908Z,996.86
2024-04-23T02:33:43.003Z,996.87
2024-04-23T02:34:42.840Z,996.84
2024-04-23T02:35:42.761Z,996.85
2024-04-23T02:36:42.756Z,996.88
2024-04-23T02:37:42.806Z,996.87
2024-04-23T02:38:42.785Z,996.87
2024-04-23T02:39:42.743Z,996.93
2024-04-23T02:40:42.742Z,996.88
2024-04-23T02:41:42.710Z,996.85
2024-04-23T02:42:42.707Z,996.89
2024-04-23T02:43:42.721Z,996.87
2024-04-23T02:44:42.678Z,996.94
2024-04-23T02:45:42.668Z,996.89
2024-04-23T02:46:42.696Z,996.83
2024-04-23T02:47:42.754Z,996.88
2024-04-23T02:48:42.648Z,996.89
2024-04-23T02:49:42.698Z,996.77
2024-04-23T02:50:42.618Z,996.76
2024-04-23T02:51:42.613Z,996.75
2024-04-23T02:52:42.640Z,996.77
2024-04-23T02:53:42.591Z,996.73
2024-04-23T02:54:42.583Z,996.72
2024-04-23T02:55:42.608Z,996.73
2024-04-23T02:56:42.572Z,996.83
2024-04-23T02:57:42.570Z,996.84
2024-04-23T02:58:42.555Z,996.90
2024-04-23T02:59:42.533Z,996.82
2024-04-23T03:00:42.535Z,996.78
2024-04-23T03:01:42.576Z,996.90
2024-04-23T03:02:42.613Z,996.88
2024-04-23T03:03:42.571Z,996.78
2024-04-23T03:04:42.519Z,996.76
2024-04-23T03:05:42.484Z,996.73
2024-04-23T03:06:42.474Z,996.74
2024-04-23T03:07:42.474Z,996.77
2024-04-23T03:08:42.448Z,996.82
2024-04-23T03:09:42.435Z,996.78
2024-04-23T03:10:42.538Z,996.92
2024-04-23T03:11:42.503Z,996.81
2024-04-23T03:12:42.414Z,996.71
2024-04-23T03:13:42.422Z,996.83
2024-04-23T03:14:42.381Z,996.90
2024-04-23T03:15:42.390Z,996.96
2024-04-23T03:16:42.401Z,996.86
2024-04-23T03:17:42.428Z,997.00
2024-04-23T03:18:42.407Z,996.91
2024-04-23T03:19:42.389Z,996.85
2024-04-23T03:20:42.344Z,996.94
2024-04-23T03:21:42.318Z,996.93
2024-04-23T03:22:42.325Z,996.85
2024-04-23T03:23:42.295Z,996.84
2024-04-23T03:24:42.312Z,996.87
2024-04-23T03:25:42.353Z,996.82
2024-04-23T03:26:42.279Z,996.84
2024-04-23T03:27:42.255Z,996.83
2024-04-23T03:28:42.298Z,996.85
2024-04-23T03:29:42.247Z,996.87
2024-04-23T03:30:42.236Z,996.91
2024-04-23T03:31:42.290Z,996.86
2024-04-23T03:32:42.215Z,996.84
2024-04-23T03:33:42.190Z,996.86
2024-04-23T03:34:42.226Z,996.86
2024-04-23T03:35:42.175Z,996.82
2024-04-23T03:36:42.160Z,996.88
2024-04-23T03:37:42.210Z,996.83
2024-04-23T03:38:42.144Z,996.82
2024-04-23T03:39:42.158Z,996.89
2024-04-23T03:40:42.136Z,996.96
2024-04-23T03:41:42.108Z,996.81
2024-04-23T03:42:42.107Z,996.80
2024-04-23T03:43:42.125Z,996.84
2024-04-23T03:44:44.833Z,996.82
2024-04-23T03:45:42.080Z,996.81
2024-04-23T03:46:42.077Z,996.82
2024-04-23T03:47:42.148Z,996.77
2024-04-23T03:48:42.049Z,996.84
2024-04-23T03:49:42.079Z,996.77
2024-04-23T03:50:42.062Z,996.97
2024-04-23T03:51:42.005Z,996.78
2024-04-23T03:52:42.062Z,996.84
2024-04-23T03:53:42.101Z,996.81
2024-04-23T03:54:42.232Z,996.80
2024-04-23T03:55:42.115Z,996.79
2024-04-23T03:56:41.993Z,996.84
2024-04-23T03:57:42.070Z,996.83
2024-04-23T03:58:42.023Z,996.78
2024-04-23T03:59:41.934Z,996.79
2024-04-23T04:00:41.950Z,996.78
2024-04-23T04:01:42.016Z,996.81
2024-04-23T04:02:42.000Z,996.91
2024-04-23T04:03:41.936Z,996.78
2024-04-23T04:04:41.912Z,996.76
2024-04-23T04:05:41.872Z,996.80
2024-04-23T04:06:41.894Z,996.83
2024-04-23T04:07:41.875Z,996.87
2024-04-23T04:08:41.854Z,996.82
2024-04-23T04:09:41.830Z,996.81
2024-04-23T04:10:41.868Z,996.82
2024-04-23T04:11:41.945Z,996.80
2024-04-23T04:12:41.822Z,996.88
2024-04-23T04:13:42.115Z,996.77
2024-04-23T04:14:41.783Z,996.72
2024-04-23T04:15:41.769Z,996.85
2024-04-23T04:16:41.866Z,996.76
2024-04-23T04:17:42.262Z,996.75
2024-04-23T04:18:41.787Z,996.75
2024-04-23T04:19:41.759Z,996.78
2024-04-23T04:20:41.729Z,996.83
2024-04-23T04:21:41.726Z,996.74
2024-04-23T04:22:41.757Z,996.87
2024-04-23T04:23:41.702Z,996.75
2024-04-23T04:24:41.699Z,996.72
2024-04-23T04:25:41.688Z,996.75
2024-04-23T04:26:41.714Z,996.77
2024-04-23T04:27:41.670Z,996.78
2024-04-23T04:28:41.657Z,996.75
2024-04-23T04:29:41.636Z,996.79
2024-04-23T04:30:41.628Z,996.77
2024-04-23T04:31:41.702Z,996.85
2024-04-23T04:32:41.717Z,996.77
2024-04-23T21:41:47.883Z,988.90
2024-04-23T21:42:47.868Z,988.96
2024-04-23T21:43:47.877Z,988.93
2024-04-23T21:44:47.845Z,989.05
2024-04-23T21:45:47.860Z,988.94
2024-04-23T21:46:47.843Z,988.95
2024-04-23T21:47:47.928Z,988.90
2024-04-23T21:48:47.889Z,988.94
2024-04-23T21:49:47.832Z,989.02
2024-04-23T21:50:47.791Z,988.94
2024-04-23T21:52:09.603Z,988.94
2024-04-23T21:52:48.769Z,988.91
2024-04-23T21:53:47.763Z,988.89
2024-04-23T21:54:47.753Z,988.86
2024-04-23T21:55:47.746Z,988.86
2024-04-23T21:56:47.713Z,988.88
2024-04-23T21:57:47.724Z,988.78
2024-04-23T21:58:47.731Z,988.80
2024-04-23T21:59:47.699Z,988.76
2024-04-23T22:00:47.731Z,988.75
2024-04-23T22:01:47.729Z,988.72
2024-04-23T22:02:47.763Z,988.76
2024-04-23T22:03:47.781Z,988.85
2024-04-23T22:04:47.667Z,988.83
2024-04-23T22:05:47.626Z,988.79
2024-04-23T22:06:47.614Z,988.86
2024-04-23T22:07:47.648Z,988.82
2024-04-23T22:08:48.721Z,988.78
2024-04-23T22:09:48.711Z,988.82
2024-04-23T22:10:48.751Z,988.92
2024-04-23T22:11:48.807Z,988.76
2024-04-23T22:12:48.688Z,988.84
2024-04-23T22:13:48.677Z,988.80
2024-04-23T22:14:48.655Z,988.82
2024-04-23T22:15:48.640Z,988.75
2024-04-23T22:16:48.711Z,988.67
2024-04-23T22:17:48.780Z,988.59
2024-04-23T22:18:48.710Z,988.78
2024-04-23T22:19:48.651Z,988.69
2024-04-23T22:20:48.593Z,988.64
2024-04-23T22:21:48.586Z,988.66
2024-04-23T22:22:48.609Z,988.61
2024-04-23T22:23:48.562Z,988.64
2024-04-23T22:24:48.553Z,988.57
2024-04-23T22:25:48.559Z,988.66
2024-04-23T22:26:48.530Z,988.60
2024-04-23T22:27:48.537Z,988.58
2024-04-23T22:28:48.563Z,988.58
2024-04-23T22:29:48.501Z,988.63
2024-04-23T22:30:48.498Z,988.58
2024-04-23T22:31:48.491Z,988.52
2024-04-23T22:32:49.511Z,988.59
2024-04-23T22:33:48.525Z,988.53
2024-04-23T22:34:48.493Z,988.59
2024-04-23T22:35:48.448Z,988.57
2024-04-23T22:36:48.442Z,988.52
2024-04-23T22:37:48.435Z,988.52
2024-04-23T22:38:49.414Z,988.52
2024-04-23T22:39:48.405Z,988.49
2024-04-23T22:40:48.438Z,988.63
2024-04-23T22:41:48.406Z,988.52
2024-04-23T22:42:48.369Z,988.53
2024-04-23T22:43:48.382Z,988.52
2024-04-23T22:44:48.349Z,988.52
2024-04-23T22:45:48.344Z,988.60
2024-04-23T22:46:48.349Z,988.53
2024-04-23T22:47:48.384Z,988.56
2024-04-23T22:48:48.442Z,988.59
2024-04-23T22:49:48.349Z,988.47
2024-04-23T22:50:48.305Z,988.51
2024-04-23T22:51:48.323Z,988.54
2024-04-23T22:52:48.296Z,988.40
2024-04-23T22:53:48.260Z,988.36
2024-04-23T22:54:48.246Z,988.43
2024-04-23T22:55:48.265Z,988.39
2024-04-23T22:56:48.241Z,988.46
2024-04-23T22:57:48.216Z,988.39
2024-04-23T22:58:48.220Z,988.46
2024-04-23T22:59:48.203Z,988.44
2024-04-23T23:00:48.191Z,988.41
2024-04-23T23:01:48.188Z,988.50
2024-04-23T23:02:48.286Z,988.42
2024-04-23T23:03:48.166Z,988.48
2024-04-23T23:04:48.185Z,988.39
2024-04-23T23:05:48.137Z,988.44
2024-04-23T23:06:48.154Z,988.34
2024-04-23T23:07:48.147Z,988.32
2024-04-23T23:08:48.110Z,988.36
2024-04-23T23:09:48.103Z,988.33
2024-04-23T23:10:48.189Z,988.32
2024-04-23T23:11:48.194Z,988.35
2024-04-23T23:12:48.061Z,988.23
2024-04-23T23:13:48.067Z,988.21
2024-04-23T23:14:48.050Z,988.28
2024-04-23T23:15:48.039Z,988.23
2024-04-23T23:16:48.086Z,988.16
2024-04-23T23:17:48.021Z,988.25
2024-04-23T23:18:47.996Z,988.15
2024-04-23T23:19:48.034Z,988.17
2024-04-23T23:20:47.991Z,988.19
2024-04-23T23:21:47.964Z,988.15
2024-04-23T23:22:50.093Z,988.16
2024-04-23T23:23:48.959Z,988.06
2024-04-23T23:24:47.980Z,988.14
2024-04-23T23:25:47.991Z,988.12
2024-04-23T23:26:47.920Z,988.07
2024-04-23T23:27:47.912Z,988.09
2024-04-23T23:28:47.919Z,988.04
2024-04-23T23:29:47.898Z,988.06
2024-04-23T23:30:47.876Z,988.08
2024-04-23T23:31:47.889Z,988.05
2024-04-23T23:32:47.977Z,988.04
2024-04-23T23:33:47.905Z,988.18
2024-04-23T23:34:47.883Z,988.07
2024-04-23T23:35:47.828Z,988.11
2024-04-23T23:36:47.818Z,988.08
2024-04-23T23:37:47.839Z,988.02
2024-04-23T23:38:47.816Z,987.98
2024-04-23T23:39:48.782Z,987.98
2024-04-23T23:40:47.836Z,987.93
2024-04-23T23:41:47.763Z,987.89
2024-04-23T23:42:47.772Z,987.86
2024-04-23T23:43:47.778Z,987.82
2024-04-23T23:44:47.733Z,987.86
2024-04-23T23:45:47.720Z,987.77
2024-04-23T23:46:47.794Z,987.84
2024-04-23T23:47:47.840Z,987.77
2024-04-23T23:48:47.733Z,987.73
2024-04-23T23:49:47.733Z,987.71
2024-04-23T23:50:47.687Z,987.82
2024-04-23T23:51:47.662Z,987.66
2024-04-23T23:52:47.685Z,987.63
2024-04-23T23:53:47.651Z,987.65
2024-04-23T23:54:47.654Z,987.64
2024-04-23T23:55:47.644Z,987.64
2024-04-23T23:56:47.617Z,987.57
2024-04-23T23:57:47.611Z,987.53
2024-04-23T23:58:47.631Z,987.52
2024-04-23T23:59:47.570Z,987.46
